LFOT/TUF METAR and TAF weather

Enter ICAO airport designator
Station Type Date Time Source
LFOT METAR 2021/09/24 03:30 UTC NOAA

LFOT 240330Z AUTO 06004KT 020V090 CAVOK 11/10 Q1019 TEMPO 3000 BR


Station Type Date Time Source
LFOT Decoded METAR 2021/09/24 03:30 UTC NOAA

Tours, France (LFOT) 47-27N 000-43E 112M
Sep 23, 2021 - 11:30 PM EDT / 2021.09.24 0330 UTC
Wind: from the ENE (060 degrees) at 5 MPH (4 KT) (direction variable):0
Visibility: greater than 7 mile(s):0
Temperature: 51 F (11 C)
Dew Point: 50 F (10 C)
Relative Humidity: 93%
Pressure (altimeter): 30.09 in. Hg (1019 hPa)
ob: LFOT 240330Z AUTO 06004KT 020V090 CAVOK 11/10 Q1019 TEMPO 3000 BR
cycle: 3

Station Type Date Time Source
LFOT TAF 2021/09/23 18:27 UTC NOAA

TAF LFOT 231700Z 2318/2418 VRB03KT CAVOK
TEMPO 2402/2410 3500 BR PROB40
TEMPO 2404/2410 2500 BR OVC003 PROB30
TEMPO 2405/2409 0300 FG VV///

Example: see airport list